createdAt,value
2022-10-14T00:00:34.025Z,7.00
2022-10-14T00:05:55.871Z,7.06
2022-10-14T00:11:21.045Z,7.04
2022-10-14T00:16:44.655Z,6.98
2022-10-14T00:22:06.565Z,7.01
2022-10-14T00:27:28.370Z,7.09
2022-10-14T00:32:50.252Z,7.20
2022-10-14T00:38:12.096Z,7.22
2022-10-14T00:44:15.305Z,7.17
2022-10-14T00:49:40.797Z,7.33
2022-10-14T00:55:07.913Z,7.17
2022-10-14T01:00:29.745Z,7.19
2022-10-14T01:06:23.184Z,7.13
2022-10-14T01:12:23.521Z,7.09
2022-10-14T01:18:01.216Z,6.80
2022-10-14T01:24:00.929Z,6.70
2022-10-14T01:30:02.223Z,6.42
2022-10-14T01:35:27.130Z,6.41
2022-10-14T01:41:07.679Z,6.38
2022-10-14T01:46:30.520Z,6.33
2022-10-14T01:51:59.392Z,6.39
2022-10-14T01:57:25.932Z,6.54
2022-10-14T02:02:47.785Z,6.58
2022-10-14T02:08:54.446Z,6.59
2022-10-14T02:14:33.949Z,6.69
2022-10-14T02:20:16.161Z,6.67
2022-10-14T02:25:41.424Z,6.69
2022-10-14T02:31:10.431Z,6.66
2022-10-14T02:36:33.977Z,6.69
2022-10-14T02:41:56.121Z,6.63
2022-10-14T02:47:17.925Z,6.63
2022-10-14T02:52:39.736Z,6.62
2022-10-14T02:58:01.567Z,6.56
2022-10-14T03:03:23.380Z,6.58
2022-10-14T03:08:45.183Z,6.50
2022-10-14T03:14:06.999Z,6.52
2022-10-14T03:19:28.792Z,6.53
2022-10-14T03:24:50.620Z,6.48
2022-10-14T03:30:12.767Z,6.42
2022-10-14T03:35:34.721Z,6.46
2022-10-14T03:40:56.575Z,6.52
2022-10-14T03:46:18.457Z,6.61
2022-10-14T03:51:40.282Z,6.53
2022-10-14T03:57:02.126Z,6.47
2022-10-14T04:02:24.286Z,6.50
2022-10-14T04:07:46.436Z,6.45
2022-10-14T04:13:08.226Z,6.50
2022-10-14T04:18:30.036Z,6.57
2022-10-14T04:23:51.849Z,6.58
2022-10-14T04:29:13.640Z,6.56
2022-10-14T04:34:35.538Z,6.60
2022-10-14T04:39:57.440Z,6.62
2022-10-14T04:45:19.243Z,6.55
2022-10-14T04:50:41.284Z,6.53
2022-10-14T04:56:03.109Z,6.57
2022-10-14T05:01:25.112Z,6.58
2022-10-14T05:06:46.957Z,6.54
2022-10-14T05:12:08.808Z,6.63
2022-10-14T05:17:30.889Z,6.79
2022-10-14T05:22:52.715Z,6.93
2022-10-14T05:28:14.703Z,7.16
2022-10-14T05:33:36.566Z,7.68
2022-10-14T05:38:58.360Z,8.12
2022-10-14T05:44:20.164Z,8.15
2022-10-14T05:49:42.112Z,7.82
2022-10-14T05:55:04.368Z,7.85
2022-10-14T06:00:26.546Z,7.79
2022-10-14T06:05:48.525Z,8.03
2022-10-14T06:11:11.072Z,8.25
2022-10-14T06:16:33.184Z,8.56
2022-10-14T06:21:55.168Z,8.49
2022-10-14T06:27:17.070Z,8.51
2022-10-14T06:32:38.970Z,8.94
2022-10-14T06:38:02.035Z,9.95
2022-10-14T06:43:23.851Z,10.23
2022-10-14T06:48:50.034Z,10.44
2022-10-14T06:54:12.229Z,10.12
2022-10-14T06:59:34.183Z,10.41
2022-10-14T07:04:56.014Z,10.21
2022-10-14T07:10:17.856Z,9.79
2022-10-14T07:15:40.079Z,9.84
2022-10-14T07:21:05.626Z,9.83
2022-10-14T07:26:29.633Z,9.83
2022-10-14T07:31:51.494Z,9.99
2022-10-14T07:37:13.305Z,10.58
2022-10-14T07:42:35.128Z,11.18
2022-10-14T07:47:56.928Z,11.55
2022-10-14T07:53:18.893Z,11.42
2022-10-14T07:58:44.318Z,12.53
2022-10-14T08:04:06.852Z,13.97
2022-10-14T08:09:28.699Z,16.05
2022-10-14T08:14:50.552Z,17.30
2022-10-14T08:20:12.536Z,16.80
2022-10-14T08:25:36.465Z,19.94
2022-10-14T08:30:58.336Z,18.86
2022-10-14T08:36:21.457Z,18.14
2022-10-14T08:41:46.181Z,17.65
2022-10-14T08:47:14.161Z,18.67
2022-10-14T08:52:46.969Z,18.26
2022-10-14T08:58:34.604Z,17.51
2022-10-14T09:04:04.663Z,17.18
2022-10-14T09:09:56.318Z,17.74
2022-10-14T09:15:30.756Z,19.08
2022-10-14T09:20:53.820Z,19.45
2022-10-14T09:26:19.874Z,20.39
2022-10-14T09:31:41.792Z,20.00
2022-10-14T09:37:20.550Z,20.48
2022-10-14T09:43:03.131Z,19.46
2022-10-14T09:48:27.565Z,18.38
2022-10-14T09:53:52.325Z,17.64
2022-10-14T09:59:19.064Z,17.08
2022-10-14T10:04:43.626Z,16.47
2022-10-14T10:10:21.148Z,16.17
2022-10-14T10:15:57.318Z,15.86
2022-10-14T10:21:24.268Z,15.46
2022-10-14T10:26:46.104Z,15.59
2022-10-14T10:32:14.301Z,15.46
2022-10-14T10:38:06.960Z,15.60
2022-10-14T10:43:40.867Z,16.10
2022-10-14T10:49:20.576Z,16.39
2022-10-14T10:54:58.179Z,16.36
2022-10-14T11:00:21.468Z,16.63
2022-10-14T11:05:50.987Z,16.75
2022-10-14T11:11:32.134Z,16.81
2022-10-14T11:16:59.625Z,16.97
2022-10-14T11:22:58.484Z,17.13
2022-10-14T11:28:33.971Z,16.55
2022-10-14T11:34:19.979Z,16.87
2022-10-14T11:39:59.768Z,16.66
2022-10-14T11:45:42.372Z,16.91
2022-10-14T11:51:41.662Z,17.02
2022-10-14T11:57:15.545Z,17.13
2022-10-14T12:02:42.954Z,17.46
2022-10-14T12:08:13.432Z,17.53
2022-10-14T12:13:42.101Z,17.18
2022-10-14T12:19:10.023Z,17.08
2022-10-14T12:24:38.012Z,17.21
2022-10-14T12:29:59.888Z,17.23
2022-10-14T12:35:50.863Z,17.06
2022-10-14T12:41:37.730Z,17.33
2022-10-14T12:46:59.846Z,17.29
2022-10-14T12:52:32.053Z,17.39
2022-10-14T12:58:02.932Z,16.98
2022-10-14T13:03:30.614Z,16.68
2022-10-14T13:09:11.310Z,16.43
2022-10-14T13:15:00.043Z,16.24
2022-10-14T13:20:34.116Z,16.26
2022-10-14T13:26:23.130Z,16.09
2022-10-14T13:31:57.142Z,16.27
2022-10-14T13:37:29.512Z,16.10
2022-10-14T13:42:55.047Z,16.24
2022-10-14T13:48:28.489Z,16.17
2022-10-14T13:53:57.402Z,16.22
2022-10-14T13:59:39.944Z,16.14
2022-10-14T14:05:04.339Z,16.21
2022-10-14T14:10:26.501Z,16.00
2022-10-14T14:15:54.685Z,15.83
2022-10-14T14:21:16.540Z,15.80
2022-10-14T14:26:39.435Z,15.72
2022-10-14T14:32:08.110Z,15.60
2022-10-14T14:37:53.401Z,15.75
2022-10-14T14:43:15.869Z,15.52
2022-10-14T14:48:42.118Z,15.60
2022-10-14T14:54:04.948Z,15.53
2022-10-14T14:59:35.419Z,15.54
2022-10-14T15:05:11.859Z,15.28
2022-10-14T15:10:33.741Z,14.91
2022-10-14T15:15:56.045Z,15.28
2022-10-14T15:21:18.958Z,15.25
2022-10-14T15:26:40.976Z,15.13
2022-10-14T15:32:13.607Z,15.12
2022-10-14T15:37:35.463Z,15.05
2022-10-14T15:42:58.057Z,14.93
2022-10-14T15:48:20.095Z,14.79
2022-10-14T15:53:41.921Z,14.72
2022-10-14T15:59:03.699Z,14.73
2022-10-14T16:04:26.211Z,14.70
2022-10-14T16:09:48.053Z,14.67
2022-10-14T16:15:27.210Z,14.51
2022-10-14T16:20:49.173Z,14.47
2022-10-14T16:26:11.073Z,14.34
2022-10-14T16:31:32.999Z,14.32
2022-10-14T16:36:54.887Z,14.23
2022-10-14T16:47:43.572Z,13.74
2022-10-14T16:53:06.058Z,14.01
2022-10-14T16:58:28.049Z,13.94
2022-10-14T17:03:50.131Z,13.85
2022-10-14T17:09:12.086Z,13.87
2022-10-14T17:14:33.988Z,13.79
2022-10-14T17:19:55.877Z,13.79
2022-10-14T17:25:17.909Z,13.73
2022-10-14T17:30:39.817Z,13.64
2022-10-14T17:36:02.199Z,13.71
2022-10-14T17:41:26.353Z,13.64
2022-10-14T17:46:48.209Z,13.46
2022-10-14T17:52:10.102Z,13.34
2022-10-14T17:57:32.090Z,13.31
2022-10-14T18:02:53.957Z,13.25
2022-10-14T18:08:15.926Z,13.22
2022-10-14T18:13:37.967Z,13.26
2022-10-14T18:19:02.426Z,13.12
2022-10-14T18:24:24.310Z,13.02
2022-10-14T18:29:46.142Z,12.84
2022-10-14T18:35:08.444Z,12.91
2022-10-14T18:40:30.356Z,12.75
2022-10-14T18:45:52.276Z,12.61
2022-10-14T18:51:16.123Z,12.61
2022-10-14T18:56:38.413Z,12.43
2022-10-14T19:02:00.236Z,12.38
2022-10-14T19:07:22.059Z,12.24
2022-10-14T19:12:43.914Z,12.25
2022-10-14T19:18:05.697Z,12.27
2022-10-14T19:23:27.510Z,12.29
2022-10-14T19:28:50.537Z,12.15
2022-10-14T19:34:15.387Z,12.12
2022-10-14T19:39:37.303Z,12.12
2022-10-14T19:44:59.169Z,12.01
2022-10-14T19:50:20.967Z,12.16
2022-10-14T19:55:43.094Z,12.09
2022-10-14T20:01:09.439Z,12.20
2022-10-14T20:06:32.868Z,12.13
2022-10-14T20:11:54.688Z,12.07
2022-10-14T20:17:16.540Z,12.05
2022-10-14T20:22:38.434Z,12.05
2022-10-14T20:28:00.774Z,12.07
2022-10-14T20:33:22.938Z,12.01
2022-10-14T20:38:45.181Z,12.01
2022-10-14T20:44:07.021Z,12.07
2022-10-14T20:49:28.840Z,12.13
2022-10-14T20:54:50.672Z,12.04
2022-10-14T21:00:13.102Z,11.97
2022-10-14T21:05:38.469Z,11.92
2022-10-14T21:11:02.002Z,11.85
2022-10-14T21:16:26.799Z,11.82
2022-10-14T21:21:48.946Z,11.67
2022-10-14T21:27:10.778Z,11.59
2022-10-14T21:32:32.586Z,11.52
2022-10-14T21:37:54.404Z,11.41
2022-10-14T21:43:16.262Z,11.31
2022-10-14T21:48:39.046Z,11.26
2022-10-14T21:54:01.037Z,11.18
2022-10-14T21:59:22.889Z,11.01
2022-10-14T22:04:44.717Z,10.99
2022-10-14T22:10:06.828Z,10.86
2022-10-14T22:15:28.734Z,10.87
2022-10-14T22:20:58.658Z,10.73
2022-10-14T22:26:22.998Z,10.71
2022-10-14T22:31:46.049Z,10.64
2022-10-14T22:37:08.033Z,10.61
2022-10-14T22:47:56.627Z,10.12
2022-10-14T22:53:18.581Z,10.38
2022-10-14T22:58:40.548Z,10.33
2022-10-14T23:04:02.971Z,10.26
2022-10-14T23:09:25.210Z,10.22
2022-10-14T23:14:47.069Z,10.16
2022-10-14T23:20:09.896Z,10.06
2022-10-14T23:25:31.713Z,10.10
2022-10-14T23:30:53.505Z,10.11
2022-10-14T23:36:15.770Z,9.99
2022-10-14T23:41:37.761Z,9.91
2022-10-14T23:46:59.597Z,9.90
2022-10-14T23:52:21.443Z,9.73
2022-10-14T23:57:43.359Z,9.76
